createdAt,value
2023-05-10T00:00:24.984Z,124.09
2023-05-10T00:01:24.990Z,121.98
2023-05-10T00:02:25.060Z,123.32
2023-05-10T00:03:25.133Z,122.94
2023-05-10T00:04:25.052Z,121.38
2023-05-10T00:05:25.056Z,123.01
2023-05-10T00:06:25.080Z,121.03
2023-05-10T00:07:25.093Z,123.85
2023-05-10T00:08:25.107Z,123.63
2023-05-10T00:09:25.123Z,122.90
2023-05-10T00:10:25.104Z,120.48
2023-05-10T00:11:25.105Z,120.83
2023-05-10T00:12:25.095Z,121.45
2023-05-10T00:13:25.235Z,121.04
2023-05-10T00:14:25.103Z,121.79
2023-05-10T00:15:25.081Z,120.07
2023-05-10T00:16:25.154Z,122.30
2023-05-10T00:17:25.077Z,122.41
2023-05-10T00:18:25.081Z,122.93
2023-05-10T00:19:25.092Z,122.93
2023-05-10T00:20:25.090Z,121.04
2023-05-10T00:21:25.088Z,122.03
2023-05-10T00:22:25.073Z,121.95
2023-05-10T00:23:25.053Z,121.14
2023-05-10T00:24:25.064Z,122.41
2023-05-10T00:25:25.042Z,122.25
2023-05-10T00:26:25.019Z,119.64
2023-05-10T00:27:25.005Z,122.48
2023-05-10T00:28:24.988Z,121.62
2023-05-10T00:29:24.982Z,122.23
2023-05-10T00:30:24.967Z,122.72
2023-05-10T00:31:24.973Z,122.23
2023-05-10T00:32:25.052Z,121.70
2023-05-10T00:33:24.949Z,122.89
2023-05-10T00:34:24.946Z,122.34
2023-05-10T00:35:24.945Z,121.44
2023-05-10T00:36:24.922Z,122.59
2023-05-10T00:37:24.944Z,120.48
2023-05-10T00:38:24.967Z,121.18
2023-05-10T00:39:24.975Z,122.34
2023-05-10T00:40:24.976Z,123.30
2023-05-10T00:41:24.955Z,122.20
2023-05-10T00:42:24.957Z,120.39
2023-05-10T00:43:24.949Z,120.99
2023-05-10T00:44:24.932Z,122.61
2023-05-10T00:45:24.949Z,122.66
2023-05-10T00:46:24.970Z,122.95
2023-05-10T00:47:24.955Z,121.19
2023-05-10T00:48:24.918Z,119.98
2023-05-10T00:49:24.925Z,122.82
2023-05-10T00:50:24.926Z,123.17
2023-05-10T00:51:24.932Z,121.31
2023-05-10T00:52:24.920Z,119.96
2023-05-10T00:53:24.918Z,120.84
2023-05-10T00:54:24.926Z,121.81
2023-05-10T00:55:24.926Z,121.99
2023-05-10T00:56:24.877Z,123.11
2023-05-10T00:57:24.861Z,119.64
2023-05-10T00:58:24.887Z,120.33
2023-05-10T00:59:24.871Z,121.68
2023-05-10T01:00:24.882Z,121.98
2023-05-10T01:01:24.935Z,122.38
2023-05-10T01:02:24.978Z,122.92
2023-05-10T01:03:24.942Z,122.43
2023-05-10T01:04:24.924Z,123.06
2023-05-10T01:05:25.019Z,121.18
2023-05-10T01:06:24.867Z,122.22
2023-05-10T01:07:24.857Z,124.53
2023-05-10T01:08:24.843Z,121.97
2023-05-10T01:09:24.824Z,123.21
2023-05-10T01:10:24.828Z,122.65
2023-05-10T01:11:24.803Z,121.08
2023-05-10T01:12:24.834Z,121.61
2023-05-10T01:13:24.890Z,121.30
2023-05-10T01:14:24.779Z,122.42
2023-05-10T01:15:24.760Z,121.71
2023-05-10T01:16:24.868Z,121.00
2023-05-10T01:17:24.735Z,124.97
2023-05-10T01:18:24.720Z,120.80
2023-05-10T01:19:24.743Z,122.41
2023-05-10T01:20:24.758Z,122.81
2023-05-10T01:21:24.744Z,121.27
2023-05-10T01:22:24.736Z,121.90
2023-05-10T01:23:24.724Z,119.54
2023-05-10T01:24:24.740Z,123.58
2023-05-10T01:25:24.721Z,120.92
2023-05-10T01:26:24.713Z,120.78
2023-05-10T01:27:24.715Z,123.69
2023-05-10T01:28:24.693Z,121.47
2023-05-10T01:29:24.679Z,122.99
2023-05-10T01:30:24.907Z,121.32
2023-05-10T01:31:24.743Z,121.82
2023-05-10T01:32:24.646Z,121.72
2023-05-10T01:33:24.631Z,122.96
2023-05-10T01:34:24.595Z,121.81
2023-05-10T01:35:24.593Z,121.60
2023-05-10T01:36:24.599Z,120.70
2023-05-10T01:37:24.586Z,122.58
2023-05-10T01:38:24.584Z,121.15
2023-05-10T01:39:24.552Z,121.41
2023-05-10T01:40:24.534Z,122.20
2023-05-10T01:41:24.511Z,120.64
2023-05-10T01:42:24.476Z,122.48
2023-05-10T01:43:24.446Z,121.04
2023-05-10T01:44:24.416Z,122.79
2023-05-10T01:45:24.391Z,121.97
2023-05-10T01:46:24.398Z,122.16
2023-05-10T01:47:24.387Z,120.30
2023-05-10T01:48:24.345Z,123.10
2023-05-10T01:49:24.319Z,121.73
2023-05-10T01:50:24.318Z,121.15
2023-05-10T01:51:24.299Z,122.43
2023-05-10T01:52:24.265Z,121.05
2023-05-10T01:53:24.259Z,121.15
2023-05-10T01:54:24.244Z,122.61
2023-05-10T01:55:24.211Z,120.35
2023-05-10T01:56:24.191Z,124.43
2023-05-10T01:57:24.161Z,121.17
2023-05-10T01:58:24.128Z,121.79
2023-05-10T01:59:24.118Z,122.30
2023-05-10T02:00:24.088Z,122.46
2023-05-10T02:01:24.116Z,122.12
2023-05-10T02:02:24.087Z,121.31
2023-05-10T02:03:24.112Z,123.32
2023-05-10T02:04:24.020Z,122.03
2023-05-10T02:05:24.002Z,122.11
2023-05-10T02:06:23.970Z,120.51
2023-05-10T02:07:23.944Z,121.81
2023-05-10T02:08:23.952Z,119.74
2023-05-10T02:09:23.917Z,121.79
2023-05-10T02:10:23.876Z,120.84
2023-05-10T02:11:23.859Z,120.96
2023-05-10T02:12:23.846Z,122.09
2023-05-10T02:13:23.832Z,121.86
2023-05-10T02:14:23.793Z,119.81
2023-05-10T02:15:23.759Z,121.09
2023-05-10T02:16:23.762Z,121.87
2023-05-10T02:17:23.726Z,121.56
2023-05-10T02:18:23.686Z,121.82
2023-05-10T02:19:23.664Z,121.73
2023-05-10T02:20:23.645Z,123.88
2023-05-10T02:21:23.645Z,122.59
2023-05-10T02:22:23.604Z,120.61
2023-05-10T02:23:23.593Z,122.38
2023-05-10T02:24:23.564Z,120.48
2023-05-10T02:25:23.536Z,121.40
2023-05-10T02:26:23.510Z,124.36
2023-05-10T02:27:23.502Z,123.69
2023-05-10T02:28:23.488Z,121.81
2023-05-10T02:29:23.494Z,118.82
2023-05-10T02:30:23.461Z,119.20
2023-05-10T02:31:23.471Z,120.48
2023-05-10T02:32:23.491Z,122.59
2023-05-10T02:33:23.460Z,121.95
2023-05-10T02:34:23.430Z,121.23
2023-05-10T02:35:23.410Z,123.20
2023-05-10T02:36:23.382Z,120.65
2023-05-10T02:37:23.359Z,121.72
2023-05-10T02:38:23.349Z,121.62
2023-05-10T02:39:23.324Z,123.36
2023-05-10T02:40:23.302Z,121.69
2023-05-10T02:41:23.285Z,121.43
2023-05-10T02:42:23.262Z,121.07
2023-05-10T02:43:23.231Z,121.21
2023-05-10T02:44:23.218Z,120.41
2023-05-10T02:45:23.216Z,121.22
2023-05-10T02:46:23.212Z,121.80
2023-05-10T02:47:23.169Z,123.30
2023-05-10T02:48:23.173Z,123.07
2023-05-10T02:49:23.161Z,122.18
2023-05-10T02:50:23.161Z,121.09
2023-05-10T02:51:23.147Z,120.97
2023-05-10T02:52:23.141Z,121.36
2023-05-10T02:53:23.132Z,123.34
2023-05-10T02:54:23.137Z,122.88
2023-05-10T02:55:23.107Z,121.32
2023-05-10T02:56:23.103Z,119.99
2023-05-10T02:57:23.098Z,121.76
2023-05-10T02:58:23.064Z,121.78
2023-05-10T02:59:23.064Z,123.93
2023-05-10T03:00:23.046Z,120.02
2023-05-10T03:01:23.072Z,122.59
2023-05-10T03:02:23.072Z,122.19
2023-05-10T03:03:23.032Z,120.90
2023-05-10T03:04:23.028Z,122.31
2023-05-10T03:05:22.975Z,121.39
2023-05-10T03:06:22.962Z,120.27
2023-05-10T03:07:22.943Z,122.66
2023-05-10T03:08:22.938Z,121.64
2023-05-10T03:09:22.934Z,123.65
2023-05-10T03:10:22.900Z,121.03
2023-05-10T03:11:22.893Z,121.65
2023-05-10T03:12:22.892Z,120.97
2023-05-10T03:13:22.932Z,120.02
2023-05-10T03:14:22.845Z,121.75
2023-05-10T03:15:22.839Z,120.05
2023-05-10T03:16:22.991Z,120.27
2023-05-10T03:17:22.898Z,120.79
2023-05-10T03:18:22.805Z,121.09
2023-05-10T03:19:22.784Z,121.95
2023-05-10T03:20:22.760Z,121.05
2023-05-10T03:21:22.753Z,120.99
2023-05-10T03:22:22.721Z,120.75
2023-05-10T03:23:22.706Z,122.51
2023-05-10T03:24:22.700Z,120.44
2023-05-10T03:25:22.699Z,121.95
2023-05-10T03:26:22.667Z,117.68
2023-05-10T03:27:22.671Z,121.95
2023-05-10T03:28:22.642Z,118.02
2023-05-10T03:29:22.630Z,119.55
2023-05-10T03:30:22.628Z,119.69
2023-05-10T03:31:22.599Z,119.71
2023-05-10T03:32:22.578Z,119.09
2023-05-10T03:33:22.626Z,121.93
2023-05-10T03:34:22.525Z,120.83
2023-05-10T03:35:22.514Z,121.19
2023-05-10T03:36:22.499Z,119.72
2023-05-10T03:37:22.486Z,121.29
2023-05-10T03:38:22.492Z,122.52
2023-05-10T03:39:22.461Z,122.38
2023-05-10T03:40:22.459Z,121.56
2023-05-10T03:41:22.478Z,119.94
2023-05-10T03:42:22.422Z,122.09
2023-05-10T03:43:22.418Z,120.12
2023-05-10T03:44:22.385Z,119.63
2023-05-10T03:45:22.391Z,121.28
2023-05-10T03:46:22.396Z,118.94
2023-05-10T03:47:22.364Z,119.05
2023-05-10T03:48:22.356Z,120.59
2023-05-10T03:49:22.343Z,119.34
2023-05-10T03:50:22.338Z,120.12
2023-05-10T03:51:22.310Z,120.82
2023-05-10T03:52:22.309Z,120.71
2023-05-10T03:53:22.297Z,120.78
2023-05-10T03:54:22.299Z,121.15
2023-05-10T03:55:22.270Z,121.40
2023-05-10T03:56:22.250Z,119.95
2023-05-10T03:57:22.240Z,120.40
2023-05-10T03:58:22.220Z,121.65
2023-05-10T03:59:22.209Z,120.77
2023-05-10T04:00:22.183Z,119.19
2023-05-10T04:01:22.180Z,120.97
2023-05-10T04:02:22.238Z,120.39
2023-05-10T04:03:22.250Z,122.71
2023-05-10T04:04:22.159Z,119.83
2023-05-10T04:05:22.149Z,120.03
2023-05-10T04:06:22.165Z,119.18
2023-05-10T04:07:22.117Z,119.54
2023-05-10T04:08:22.105Z,120.24
2023-05-10T04:09:22.131Z,122.29
2023-05-10T04:10:22.104Z,122.60
2023-05-10T04:11:22.088Z,119.46
2023-05-10T04:12:22.078Z,119.60
2023-05-10T04:13:22.166Z,121.14
2023-05-10T04:14:22.068Z,117.48
2023-05-10T04:15:22.158Z,121.21
2023-05-10T04:16:22.072Z,117.43
2023-05-10T04:17:22.068Z,121.18
2023-05-10T04:18:21.990Z,120.59
2023-05-10T04:19:21.988Z,119.89
2023-05-10T04:20:21.976Z,120.69
2023-05-10T04:21:21.983Z,120.48
2023-05-10T04:22:21.991Z,121.44
2023-05-10T04:23:21.956Z,120.35
2023-05-10T04:24:21.944Z,119.13
2023-05-10T04:25:21.929Z,119.69
2023-05-10T04:26:21.902Z,121.11
2023-05-10T04:27:21.881Z,121.50
2023-05-10T04:28:21.864Z,120.04
2023-05-10T04:29:21.865Z,120.95
2023-05-10T04:30:21.892Z,120.61
2023-05-10T04:31:21.924Z,119.94
2023-05-10T04:32:21.852Z,116.84
2023-05-10T04:33:21.813Z,117.62
2023-05-10T04:34:21.813Z,120.17
2023-05-10T04:35:21.809Z,119.68
2023-05-10T04:36:21.784Z,118.80
2023-05-10T04:37:21.773Z,120.01
2023-05-10T04:38:21.813Z,119.95
2023-05-10T04:39:21.769Z,118.38
2023-05-10T04:40:21.743Z,118.18
2023-05-10T04:41:21.737Z,119.91
2023-05-10T04:42:21.706Z,118.53
2023-05-10T04:43:21.703Z,119.68
2023-05-10T04:44:21.689Z,117.68
2023-05-10T04:45:21.671Z,120.29
2023-05-10T04:46:21.682Z,117.90
2023-05-10T04:47:21.664Z,120.04
2023-05-10T04:48:21.645Z,118.48
2023-05-10T04:49:21.634Z,121.68
2023-05-10T04:50:21.635Z,119.47
2023-05-10T04:51:21.630Z,115.66
2023-05-10T04:52:21.622Z,119.27
2023-05-10T04:53:21.597Z,119.08
2023-05-10T04:54:21.579Z,118.03
2023-05-10T04:55:21.567Z,118.79
2023-05-10T04:56:21.519Z,118.52
2023-05-10T04:57:21.478Z,118.23
2023-05-10T04:58:21.451Z,118.18
2023-05-10T04:59:21.414Z,118.35
2023-05-10T05:00:21.421Z,119.27
2023-05-10T05:01:21.428Z,116.53
2023-05-10T05:02:21.404Z,118.60
2023-05-10T05:03:21.466Z,120.32
2023-05-10T05:04:21.295Z,120.01
2023-05-10T05:05:21.269Z,116.66
2023-05-10T05:06:21.217Z,117.53
2023-05-10T05:07:21.181Z,118.43
2023-05-10T05:08:21.156Z,119.39
2023-05-10T05:09:21.131Z,117.12
2023-05-10T05:10:21.103Z,117.83
2023-05-10T05:11:21.057Z,117.16
2023-05-10T05:12:21.038Z,117.01
2023-05-10T05:13:21.032Z,117.12
2023-05-10T05:14:20.968Z,117.37
2023-05-10T05:15:20.929Z,117.45
2023-05-10T05:16:20.951Z,118.58
2023-05-10T05:17:20.872Z,118.07
2023-05-10T05:18:20.846Z,117.49
2023-05-10T05:19:20.798Z,110.74
2023-05-10T05:20:20.768Z,102.90
2023-05-10T05:21:20.814Z,100.00
2023-05-10T05:22:20.744Z,97.03
2023-05-10T05:23:20.718Z,96.96
2023-05-10T05:24:20.705Z,107.92
2023-05-10T05:25:20.666Z,117.91
2023-05-10T05:26:20.657Z,134.01
2023-05-10T05:27:20.608Z,142.40
2023-05-10T05:28:20.579Z,143.14
2023-05-10T05:29:20.580Z,137.32
2023-05-10T05:30:20.505Z,139.24
2023-05-10T05:31:20.575Z,138.04
2023-05-10T05:32:20.542Z,134.26
2023-05-10T05:33:20.435Z,124.69
2023-05-10T05:34:20.428Z,122.33
2023-05-10T05:35:20.408Z,125.59
2023-05-10T05:36:20.389Z,120.66
2023-05-10T05:37:20.405Z,122.76
2023-05-10T05:38:20.343Z,127.86
2023-05-10T05:39:20.310Z,127.97
2023-05-10T05:40:21.190Z,135.57
2023-05-10T05:41:20.241Z,138.28
2023-05-10T05:42:20.199Z,147.33
2023-05-10T05:43:20.178Z,146.69
2023-05-10T05:44:20.130Z,145.25
2023-05-10T05:45:20.234Z,149.37
2023-05-10T05:46:20.179Z,150.07
2023-05-10T05:47:20.065Z,152.68
2023-05-10T05:48:20.026Z,156.15
2023-05-10T05:49:20.015Z,155.72
2023-05-10T05:50:20.006Z,157.81
2023-05-10T05:51:20.000Z,161.67
2023-05-10T05:52:20.680Z,160.50
2023-05-10T05:53:19.957Z,159.47
2023-05-10T05:54:19.962Z,162.98
2023-05-10T05:55:19.956Z,161.72
2023-05-10T05:56:19.935Z,164.11
2023-05-10T05:57:19.971Z,165.31
2023-05-10T05:58:19.895Z,167.10
2023-05-10T05:59:19.869Z,165.89
2023-05-10T06:00:20.607Z,165.41
2023-05-10T06:01:19.845Z,167.32
2023-05-10T06:02:19.843Z,169.61
2023-05-10T06:03:19.904Z,168.43
2023-05-10T06:04:19.773Z,165.73
2023-05-10T06:05:19.758Z,168.80
2023-05-10T06:06:19.750Z,166.94
2023-05-10T06:07:19.716Z,166.98
2023-05-10T06:08:19.692Z,169.36
2023-05-10T06:09:19.673Z,174.23
2023-05-10T06:10:19.647Z,169.17
2023-05-10T06:11:20.591Z,169.51
2023-05-10T06:12:19.556Z,169.93
2023-05-10T06:13:19.537Z,171.10
2023-05-10T06:14:19.484Z,172.30
2023-05-10T06:15:19.393Z,174.08
2023-05-10T06:16:19.351Z,175.65
2023-05-10T06:17:19.303Z,173.79
2023-05-10T06:18:19.241Z,173.69
2023-05-10T06:19:19.193Z,176.00
2023-05-10T06:20:19.208Z,172.55
2023-05-10T06:21:19.218Z,174.51
2023-05-10T06:22:19.253Z,184.41
2023-05-10T06:23:19.214Z,164.61
2023-05-10T06:24:19.206Z,137.87
2023-05-10T06:25:20.121Z,125.81
2023-05-10T06:26:19.170Z,103.49
2023-05-10T06:27:19.144Z,105.33
2023-05-10T06:28:19.123Z,89.48
2023-05-10T06:29:19.634Z,82.20
2023-05-10T06:30:19.076Z,83.72
2023-05-10T06:31:19.073Z,84.30
2023-05-10T06:32:19.051Z,77.78
2023-05-10T06:33:19.027Z,69.79
2023-05-10T06:34:19.027Z,60.17
2023-05-10T06:35:19.262Z,66.21
2023-05-10T06:36:19.025Z,62.76
2023-05-10T06:37:19.052Z,70.82
2023-05-10T06:38:19.029Z,76.68
2023-05-10T06:39:19.030Z,75.01
2023-05-10T06:40:19.030Z,69.01
2023-05-10T06:41:19.736Z,61.84
2023-05-10T06:42:19.062Z,48.82
2023-05-10T06:43:19.066Z,42.09
2023-05-10T06:44:19.085Z,34.14
2023-05-10T06:45:19.277Z,32.02
2023-05-10T06:46:19.098Z,38.06
2023-05-10T06:47:19.101Z,46.08
2023-05-10T06:48:19.132Z,50.08
2023-05-10T06:49:19.094Z,42.36
2023-05-10T06:50:19.088Z,42.25
2023-05-10T06:51:19.078Z,39.93
2023-05-10T06:52:19.051Z,44.18
2023-05-10T06:53:19.051Z,46.68
2023-05-10T06:54:19.018Z,53.22
2023-05-10T06:55:19.127Z,57.24
2023-05-10T06:56:18.976Z,58.56
2023-05-10T06:57:31.396Z,63.92
2023-05-10T06:58:20.164Z,64.07
2023-05-10T06:59:19.180Z,62.02
2023-05-10T07:00:19.359Z,61.30
2023-05-10T07:01:19.306Z,63.03
2023-05-10T07:02:19.063Z,64.43
2023-05-10T07:03:19.064Z,57.74
2023-05-10T07:04:19.053Z,58.38
2023-05-10T07:05:19.224Z,60.92
2023-05-10T07:06:32.159Z,56.53
2023-05-10T07:07:19.929Z,56.68
2023-05-10T07:08:19.637Z,55.69
2023-05-10T07:09:18.789Z,48.75
2023-05-10T07:10:18.736Z,41.09
2023-05-10T07:11:18.687Z,38.28
2023-05-10T07:12:18.669Z,45.83
2023-05-10T07:13:18.672Z,43.55
2023-05-10T07:14:18.554Z,43.70
2023-05-10T07:15:18.715Z,47.94
2023-05-10T07:16:18.518Z,45.03
2023-05-10T07:17:18.479Z,42.97
2023-05-10T07:18:18.412Z,54.89
2023-05-10T07:19:18.321Z,56.87
2023-05-10T07:20:18.270Z,64.71
2023-05-10T07:21:18.270Z,75.03
2023-05-10T07:22:18.184Z,86.62
2023-05-10T07:23:18.111Z,98.58
2023-05-10T07:24:18.061Z,108.10
2023-05-10T07:25:18.132Z,124.03
2023-05-10T07:26:17.931Z,131.79
2023-05-10T07:27:17.902Z,138.80
2023-05-10T07:28:17.895Z,142.55
2023-05-10T07:29:17.856Z,150.46
2023-05-10T07:30:17.835Z,158.02
2023-05-10T07:31:17.763Z,170.37
2023-05-10T07:32:17.770Z,179.90
2023-05-10T07:33:17.695Z,186.34
2023-05-10T07:34:17.633Z,192.88
2023-05-10T07:35:17.753Z,200.00
2023-05-10T07:36:17.537Z,203.58
2023-05-10T07:37:17.547Z,213.41
2023-05-10T07:38:17.548Z,218.37
2023-05-10T07:39:26.454Z,226.19
2023-05-10T07:40:18.480Z,226.63
2023-05-10T07:41:17.408Z,228.31
2023-05-10T07:42:17.333Z,233.14
2023-05-10T07:43:17.262Z,242.78
2023-05-10T07:44:17.240Z,256.37
2023-05-10T07:45:17.269Z,247.30
2023-05-10T07:46:17.072Z,248.69
2023-05-10T07:47:16.979Z,249.73
2023-05-10T07:48:16.926Z,250.00
2023-05-10T07:49:16.933Z,249.64
2023-05-10T07:50:16.916Z,250.00
2023-05-10T07:51:16.878Z,247.22
2023-05-10T07:52:16.894Z,247.62
2023-05-10T07:53:16.853Z,248.79
2023-05-10T07:54:16.837Z,248.89
2023-05-10T07:55:17.074Z,250.09
2023-05-10T07:56:16.817Z,249.80
2023-05-10T07:57:16.804Z,250.00
2023-05-10T07:58:16.778Z,250.78
2023-05-10T07:59:16.754Z,250.00
2023-05-10T08:00:16.728Z,250.00
2023-05-10T08:01:16.691Z,248.19
2023-05-10T08:02:16.747Z,250.00
2023-05-10T08:03:16.744Z,249.31
2023-05-10T08:04:16.673Z,249.62
2023-05-10T08:05:16.757Z,249.88
2023-05-10T08:06:16.518Z,248.90
2023-05-10T08:07:16.481Z,249.43
2023-05-10T08:08:16.457Z,249.25
2023-05-10T08:09:16.434Z,250.00
2023-05-10T08:10:16.402Z,249.14
2023-05-10T08:11:16.456Z,249.30
2023-05-10T08:12:16.350Z,250.00
2023-05-10T08:13:16.318Z,249.42
2023-05-10T08:14:16.294Z,250.00
2023-05-10T08:15:16.428Z,237.45
2023-05-10T08:16:16.269Z,186.22
2023-05-10T08:17:16.665Z,146.17
2023-05-10T08:18:16.192Z,124.99
2023-05-10T08:19:16.141Z,103.62
2023-05-10T08:20:16.082Z,95.12
2023-05-10T08:21:16.048Z,84.36
2023-05-10T08:22:16.008Z,70.31
2023-05-10T08:23:15.927Z,50.84
2023-05-10T08:24:15.896Z,31.37
2023-05-10T08:25:16.079Z,26.54
2023-05-10T08:26:15.795Z,41.52
2023-05-10T08:27:15.745Z,51.38
2023-05-10T08:28:15.696Z,56.52
2023-05-10T08:29:15.652Z,66.78
2023-05-10T08:30:15.614Z,80.02
2023-05-10T08:31:15.600Z,90.13
2023-05-10T08:32:15.560Z,94.92
2023-05-10T08:33:15.606Z,100.57
2023-05-10T08:34:15.490Z,105.24
2023-05-10T08:35:15.647Z,110.40
2023-05-10T08:36:15.410Z,115.14
2023-05-10T08:37:15.392Z,117.70
2023-05-10T08:38:15.380Z,122.93
2023-05-10T08:39:23.325Z,126.84
2023-05-10T08:40:16.330Z,127.15
2023-05-10T08:41:15.234Z,128.29
2023-05-10T08:42:15.179Z,131.70
2023-05-10T08:43:15.116Z,137.49
2023-05-10T08:44:15.056Z,148.56
2023-05-10T08:45:15.048Z,151.41
2023-05-10T08:46:14.949Z,155.88
2023-05-10T08:47:14.877Z,159.48
2023-05-10T08:48:14.796Z,164.17
2023-05-10T08:49:14.708Z,166.69
2023-05-10T08:50:14.652Z,169.54
2023-05-10T08:51:14.605Z,173.97
2023-05-10T08:52:14.570Z,176.17
2023-05-10T08:53:14.542Z,178.25
2023-05-10T08:54:14.503Z,183.54
2023-05-10T08:55:14.661Z,186.04
2023-05-10T08:56:14.424Z,189.56
2023-05-10T08:57:14.377Z,192.48
2023-05-10T08:58:14.347Z,195.78
2023-05-10T08:59:14.304Z,199.49
2023-05-10T09:00:14.250Z,204.76
2023-05-10T09:01:14.215Z,208.26
2023-05-10T09:02:14.761Z,209.93
2023-05-10T09:03:14.121Z,213.93
2023-05-10T09:04:14.134Z,215.99
2023-05-10T09:05:14.052Z,218.69
2023-05-10T09:06:13.950Z,222.50
2023-05-10T09:07:13.898Z,226.77
2023-05-10T09:08:13.940Z,231.10
2023-05-10T09:09:13.916Z,233.41
2023-05-10T09:10:13.842Z,234.59
2023-05-10T09:11:13.798Z,236.76
2023-05-10T09:12:13.710Z,241.19
2023-05-10T09:13:13.661Z,244.94
2023-05-10T09:14:13.602Z,245.29
2023-05-10T09:15:13.550Z,249.21
2023-05-10T09:16:21.022Z,249.34
2023-05-10T09:17:14.475Z,249.66
2023-05-10T09:18:13.375Z,250.28
2023-05-10T09:19:13.330Z,251.43
2023-05-10T09:20:13.146Z,253.55
2023-05-10T09:21:13.104Z,255.26
2023-05-10T09:22:12.986Z,248.92
2023-05-10T09:23:12.931Z,249.51
2023-05-10T09:24:12.852Z,248.29
2023-05-10T09:25:12.776Z,247.42
2023-05-10T09:26:12.737Z,247.06
2023-05-10T09:27:12.625Z,244.95
2023-05-10T09:28:12.576Z,247.19
2023-05-10T09:29:12.518Z,244.98
2023-05-10T09:30:12.469Z,246.08
2023-05-10T09:31:12.546Z,243.26
2023-05-10T09:32:13.781Z,243.64
2023-05-10T09:33:12.472Z,244.49
2023-05-10T09:34:13.231Z,244.60
2023-05-10T09:35:12.514Z,241.95
2023-05-10T09:36:12.461Z,241.79
2023-05-10T09:37:12.422Z,243.04
2023-05-10T09:38:13.261Z,241.76
2023-05-10T09:39:12.326Z,240.39
2023-05-10T09:40:12.297Z,239.75
2023-05-10T09:41:12.283Z,240.93
2023-05-10T09:42:12.248Z,240.46
2023-05-10T09:43:12.196Z,238.53
2023-05-10T09:44:12.117Z,238.04
2023-05-10T09:45:12.085Z,238.66
2023-05-10T09:46:12.096Z,236.99
2023-05-10T09:47:12.016Z,237.60
2023-05-10T09:48:11.983Z,235.86
2023-05-10T09:49:11.931Z,235.32
2023-05-10T09:50:11.857Z,233.80
2023-05-10T09:51:11.836Z,233.72
2023-05-10T09:52:11.793Z,234.60
2023-05-10T09:53:11.753Z,233.98
2023-05-10T09:54:11.727Z,233.98
2023-05-10T09:55:12.191Z,231.93
2023-05-10T09:56:11.595Z,232.14
2023-05-10T09:57:11.550Z,230.49
2023-05-10T09:58:11.863Z,230.12
2023-05-10T09:59:11.467Z,229.20
2023-05-10T10:00:11.397Z,229.42
2023-05-10T10:01:11.377Z,229.66
2023-05-10T10:02:11.296Z,228.52
2023-05-10T10:03:11.275Z,230.82
2023-05-10T10:04:11.219Z,228.02
2023-05-10T10:05:11.201Z,227.23
2023-05-10T10:06:18.811Z,228.50
2023-05-10T10:07:12.054Z,228.59
2023-05-10T10:08:10.994Z,228.49
2023-05-10T10:09:10.937Z,226.70
2023-05-10T10:10:10.879Z,225.06
2023-05-10T10:11:10.821Z,225.60
2023-05-10T10:12:10.755Z,225.40
2023-05-10T10:13:10.705Z,223.28
2023-05-10T10:14:10.645Z,222.46
2023-05-10T10:15:10.596Z,222.64
2023-05-10T10:16:10.613Z,223.27
2023-05-10T10:17:10.536Z,222.68
2023-05-10T10:18:10.528Z,225.63
2023-05-10T10:19:10.361Z,223.48
2023-05-10T10:20:12.130Z,222.12
2023-05-10T10:21:11.208Z,223.77
2023-05-10T10:22:10.164Z,223.87
2023-05-10T10:23:10.107Z,222.77
2023-05-10T10:24:10.067Z,223.71
2023-05-10T10:25:09.991Z,223.98
2023-05-10T10:26:09.953Z,224.05
2023-05-10T10:27:09.878Z,222.87
2023-05-10T10:28:09.866Z,221.81
2023-05-10T10:29:09.756Z,223.59
2023-05-10T10:30:09.702Z,222.74
2023-05-10T10:31:09.769Z,221.49
2023-05-10T10:32:09.568Z,222.28
2023-05-10T10:33:20.212Z,222.00
2023-05-10T10:34:10.732Z,222.15
2023-05-10T10:35:09.397Z,222.21
2023-05-10T10:36:10.204Z,222.05
2023-05-10T10:37:09.278Z,222.07
2023-05-10T10:38:09.218Z,221.60
2023-05-10T10:39:09.159Z,220.34
2023-05-10T10:40:09.123Z,221.05
2023-05-10T10:41:09.049Z,221.98
2023-05-10T10:42:09.000Z,220.86
2023-05-10T10:43:08.925Z,221.63
2023-05-10T10:44:08.938Z,220.35
2023-05-10T10:45:08.832Z,220.18
2023-05-10T10:46:08.763Z,219.93
2023-05-10T10:47:08.749Z,219.48
2023-05-10T10:48:08.757Z,219.63
2023-05-10T10:49:08.647Z,217.41
2023-05-10T10:50:08.560Z,218.03
2023-05-10T10:51:10.094Z,219.05
2023-05-10T10:52:08.426Z,216.46
2023-05-10T10:53:08.382Z,217.70
2023-05-10T10:54:08.315Z,219.83
2023-05-10T10:55:08.257Z,218.61
2023-05-10T10:56:08.192Z,216.35
2023-05-10T10:57:08.142Z,216.29
2023-05-10T10:58:08.126Z,216.35
2023-05-10T10:59:08.099Z,216.04
2023-05-10T11:00:08.071Z,216.94
2023-05-10T11:01:08.102Z,216.12
2023-05-10T11:02:08.000Z,214.93
2023-05-10T11:03:08.198Z,215.72
2023-05-10T11:04:08.061Z,216.15
2023-05-10T11:05:07.905Z,214.94
2023-05-10T11:06:07.892Z,215.94
2023-05-10T11:07:07.839Z,214.86
2023-05-10T11:08:07.815Z,216.24
2023-05-10T11:09:07.812Z,213.55
2023-05-10T11:10:07.765Z,213.67
2023-05-10T11:11:07.767Z,213.93
2023-05-10T11:12:07.717Z,213.16
2023-05-10T11:13:07.703Z,211.71
2023-05-10T11:14:07.672Z,211.66
2023-05-10T11:15:07.644Z,212.42
2023-05-10T11:16:07.723Z,211.98
2023-05-10T11:17:07.735Z,211.71
2023-05-10T11:18:07.597Z,211.38
2023-05-10T11:19:07.695Z,210.88
2023-05-10T11:20:07.515Z,211.50
2023-05-10T11:21:07.502Z,211.08
2023-05-10T11:22:07.476Z,210.86
2023-05-10T11:23:07.445Z,210.06
2023-05-10T11:24:07.431Z,211.98
2023-05-10T11:25:07.390Z,210.48
2023-05-10T11:26:07.376Z,210.91
2023-05-10T11:27:07.350Z,211.17
2023-05-10T11:28:07.329Z,208.75
2023-05-10T11:29:07.313Z,208.63
2023-05-10T11:30:07.306Z,208.82
2023-05-10T11:31:07.354Z,208.33
2023-05-10T11:32:07.260Z,208.11
2023-05-10T11:33:07.261Z,208.58
2023-05-10T11:34:07.214Z,207.21
2023-05-10T11:35:07.197Z,208.33
2023-05-10T11:36:07.181Z,206.97
2023-05-10T11:37:07.166Z,207.53
2023-05-10T11:38:07.154Z,207.43
2023-05-10T11:39:07.121Z,206.15
2023-05-10T11:40:07.118Z,207.33
2023-05-10T11:41:07.096Z,206.70
2023-05-10T11:42:07.060Z,206.82
2023-05-10T11:43:07.055Z,205.59
2023-05-10T11:44:07.043Z,204.69
2023-05-10T11:45:07.018Z,204.50
2023-05-10T11:46:07.006Z,204.01
2023-05-10T11:47:06.993Z,205.79
2023-05-10T11:48:07.963Z,205.87
2023-05-10T11:49:06.907Z,205.54
2023-05-10T11:50:06.814Z,205.96
2023-05-10T11:51:06.750Z,205.16
2023-05-10T11:52:06.672Z,204.30
2023-05-10T11:53:06.630Z,204.52
2023-05-10T11:54:06.565Z,204.67
2023-05-10T11:55:06.518Z,203.08
2023-05-10T11:56:06.433Z,202.82
2023-05-10T11:57:06.440Z,203.43
2023-05-10T11:58:06.306Z,202.76
2023-05-10T11:59:06.266Z,202.41
2023-05-10T12:00:06.213Z,200.89
2023-05-10T12:01:06.154Z,202.96
2023-05-10T12:02:06.110Z,202.38
2023-05-10T12:03:06.196Z,202.95
2023-05-10T12:04:06.237Z,200.35
2023-05-10T12:05:06.136Z,200.48
2023-05-10T12:06:06.064Z,201.25
2023-05-10T12:07:06.049Z,200.10
2023-05-10T12:08:06.035Z,199.96
2023-05-10T12:09:06.020Z,200.15
2023-05-10T12:10:06.014Z,198.02
2023-05-10T12:11:06.017Z,200.46
2023-05-10T12:12:05.994Z,199.12
2023-05-10T12:13:05.994Z,197.29
2023-05-10T12:14:06.004Z,196.99
2023-05-10T12:15:05.972Z,198.80
2023-05-10T12:16:06.012Z,197.77
2023-05-10T12:17:05.949Z,198.80
2023-05-10T12:18:05.976Z,199.06
2023-05-10T12:19:06.013Z,197.43
2023-05-10T12:20:05.945Z,197.86
2023-05-10T12:21:05.921Z,196.29
2023-05-10T12:22:05.920Z,198.48
2023-05-10T12:23:05.916Z,196.96
2023-05-10T12:24:05.907Z,196.36
2023-05-10T12:25:05.901Z,196.94
2023-05-10T12:26:05.921Z,196.57
2023-05-10T12:27:05.895Z,198.06
2023-05-10T12:28:05.883Z,196.89
2023-05-10T12:29:05.875Z,194.86
2023-05-10T12:30:05.865Z,195.37